createdAt,value
2018-09-12T00:00:10.817Z,20.48
2018-09-12T00:01:10.739Z,20.53
2018-09-12T00:03:03.507Z,20.46
2018-09-12T00:04:03.483Z,20.51
2018-09-12T00:05:56.219Z,20.56
2018-09-12T00:06:56.137Z,20.53
2018-09-12T00:08:48.913Z,20.57
2018-09-12T00:09:48.867Z,20.50
2018-09-12T00:11:41.620Z,20.50
2018-09-12T00:12:41.544Z,20.53
2018-09-12T00:14:34.311Z,20.54
2018-09-12T00:15:34.252Z,20.54
2018-09-12T00:17:27.009Z,20.53
2018-09-12T00:18:26.939Z,20.56
2018-09-12T00:20:19.718Z,20.54
2018-09-12T00:21:19.649Z,20.53
2018-09-12T00:23:12.412Z,20.42
2018-09-12T00:24:12.329Z,20.41
2018-09-12T00:26:05.107Z,20.35
2018-09-12T00:27:05.033Z,20.40
2018-09-12T00:28:57.802Z,20.40
2018-09-12T00:29:57.736Z,20.27
2018-09-12T00:31:50.511Z,20.27
2018-09-12T00:32:50.441Z,20.26
2018-09-12T00:34:43.199Z,20.31
2018-09-12T00:35:43.147Z,20.33
2018-09-12T00:37:35.916Z,20.17
2018-09-12T00:38:35.843Z,20.20
2018-09-12T00:40:28.623Z,20.20
2018-09-12T00:41:28.547Z,20.13
2018-09-12T00:43:21.306Z,20.19
2018-09-12T00:44:21.254Z,20.04
2018-09-12T00:46:14.019Z,20.01
2018-09-12T00:47:13.952Z,20.07
2018-09-12T00:49:06.717Z,20.01
2018-09-12T00:50:06.652Z,20.08
2018-09-12T00:51:59.447Z,20.08
2018-09-12T00:52:59.375Z,19.94
2018-09-12T00:54:52.146Z,19.97
2018-09-12T00:55:52.092Z,19.98
2018-09-12T00:57:44.860Z,20.04
2018-09-12T00:58:44.796Z,20.04
2018-09-12T01:00:37.567Z,20.02
2018-09-12T01:01:37.492Z,20.02
2018-09-12T01:03:30.265Z,20.07
2018-09-12T01:04:30.200Z,20.04
2018-09-12T01:06:23.009Z,20.08
2018-09-12T01:07:22.937Z,20.01
2018-09-12T01:09:15.693Z,20.01
2018-09-12T01:10:15.641Z,20.01
2018-09-12T01:12:08.413Z,20.08
2018-09-12T01:13:08.349Z,20.01
2018-09-12T01:15:01.110Z,20.10
2018-09-12T01:16:01.088Z,20.12
2018-09-12T01:17:53.813Z,20.07
2018-09-12T01:18:53.744Z,19.98
2018-09-12T01:20:46.510Z,20.10
2018-09-12T01:21:46.435Z,20.04
2018-09-12T01:23:39.204Z,20.15
2018-09-12T01:24:39.145Z,20.08
2018-09-12T01:26:31.918Z,20.01
2018-09-12T01:27:31.842Z,20.05
2018-09-12T01:29:24.613Z,19.95
2018-09-12T01:30:24.553Z,20.00
2018-09-12T01:32:17.309Z,19.98
2018-09-12T01:33:17.240Z,19.92
2018-09-12T01:35:10.012Z,19.86
2018-09-12T01:36:09.948Z,19.89
2018-09-12T01:38:02.747Z,19.82
2018-09-12T01:39:02.666Z,19.78
2018-09-12T01:40:55.446Z,19.80
2018-09-12T01:41:55.374Z,19.79
2018-09-12T01:43:48.141Z,19.72
2018-09-12T01:44:48.102Z,19.70
2018-09-12T01:46:40.845Z,19.71
2018-09-12T01:47:40.776Z,19.67
2018-09-12T01:49:33.542Z,19.58
2018-09-12T01:50:33.477Z,19.49
2018-09-12T01:52:26.240Z,19.40
2018-09-12T01:53:26.175Z,19.43
2018-09-12T01:55:18.939Z,19.32
2018-09-12T01:56:18.876Z,19.32
2018-09-12T01:58:11.680Z,19.32
2018-09-12T01:59:11.596Z,19.27
2018-09-12T02:01:04.374Z,19.27
2018-09-12T02:02:04.278Z,19.35
2018-09-12T02:03:57.038Z,19.28
2018-09-12T02:04:56.982Z,19.25
2018-09-12T02:06:49.815Z,19.34
2018-09-12T02:07:49.739Z,19.34
2018-09-12T02:09:42.527Z,19.43
2018-09-12T02:10:42.467Z,19.42
2018-09-12T02:12:35.251Z,19.40
2018-09-12T02:13:35.176Z,19.43
2018-09-12T02:15:27.962Z,19.39
2018-09-12T02:16:27.887Z,19.45
2018-09-12T02:18:20.687Z,19.42
2018-09-12T02:19:20.592Z,19.43
2018-09-12T02:21:13.373Z,19.39
2018-09-12T02:22:13.301Z,19.30
2018-09-12T02:24:06.085Z,19.27
2018-09-12T02:25:06.014Z,19.30
2018-09-12T02:26:58.792Z,19.38
2018-09-12T02:27:58.724Z,19.40
2018-09-12T02:29:51.479Z,19.46
2018-09-12T02:30:51.421Z,19.38
2018-09-12T02:32:44.195Z,19.42
2018-09-12T02:33:44.126Z,19.40
2018-09-12T02:35:36.905Z,19.47
2018-09-12T02:36:36.845Z,19.49
2018-09-12T02:38:29.623Z,19.52
2018-09-12T02:39:29.542Z,19.55
2018-09-12T02:41:22.305Z,19.52
2018-09-12T02:42:22.244Z,19.50
2018-09-12T02:44:15.022Z,19.49
2018-09-12T02:45:14.974Z,19.38
2018-09-12T02:47:07.717Z,19.39
2018-09-12T02:48:07.641Z,19.42
2018-09-12T02:50:00.410Z,19.43
2018-09-12T02:51:00.349Z,19.40
2018-09-12T02:52:53.119Z,19.39
2018-09-12T02:53:53.051Z,19.50
2018-09-12T02:55:45.823Z,19.49
2018-09-12T02:56:45.746Z,19.53
2018-09-12T02:58:38.520Z,19.55
2018-09-12T02:59:38.440Z,19.50
2018-09-12T03:01:31.215Z,19.61
2018-09-12T03:02:31.145Z,19.55
2018-09-12T03:04:23.933Z,19.67
2018-09-12T03:05:23.852Z,19.64
2018-09-12T03:07:16.632Z,19.64
2018-09-12T03:08:16.563Z,19.62
2018-09-12T03:10:09.339Z,19.62
2018-09-12T03:11:09.274Z,19.62
2018-09-12T03:13:02.058Z,19.61
2018-09-12T03:14:01.986Z,19.50
2018-09-12T03:15:54.771Z,19.53
2018-09-12T03:16:54.705Z,19.55
2018-09-12T03:18:47.543Z,19.53
2018-09-12T03:19:47.467Z,19.55
2018-09-12T03:21:40.266Z,19.53
2018-09-12T03:22:40.206Z,19.45
2018-09-12T03:24:32.980Z,19.38
2018-09-12T03:25:32.902Z,19.32
2018-09-12T03:27:25.686Z,19.23
2018-09-12T03:28:25.597Z,19.35
2018-09-12T03:30:18.364Z,19.24
2018-09-12T03:31:18.302Z,19.20
2018-09-12T03:33:11.094Z,19.20
2018-09-12T03:34:11.012Z,19.23
2018-09-12T03:36:03.795Z,19.23
2018-09-12T03:37:03.742Z,19.20
2018-09-12T03:38:56.523Z,19.28
2018-09-12T03:39:56.436Z,19.25
2018-09-12T03:41:49.212Z,19.17
2018-09-12T03:42:49.154Z,19.16
2018-09-12T03:44:41.952Z,19.07
2018-09-12T03:45:41.842Z,19.17
2018-09-12T03:47:34.616Z,19.10
2018-09-12T03:48:34.546Z,19.10
2018-09-12T03:50:27.303Z,19.07
2018-09-12T03:51:27.238Z,19.09
2018-09-12T03:53:20.009Z,18.96
2018-09-12T03:54:19.936Z,18.91
2018-09-12T03:56:12.702Z,18.91
2018-09-12T03:57:12.640Z,18.93
2018-09-12T03:59:05.416Z,18.93
2018-09-12T04:00:05.347Z,18.78
2018-09-12T04:01:58.145Z,18.91
2018-09-12T04:02:58.081Z,18.78
2018-09-12T04:04:50.859Z,18.69
2018-09-12T04:05:50.786Z,18.78
2018-09-12T04:07:43.570Z,18.83
2018-09-12T04:08:43.500Z,18.69
2018-09-12T04:10:36.274Z,18.74
2018-09-12T04:11:36.196Z,18.78
2018-09-12T04:13:29.009Z,18.79
2018-09-12T04:14:28.932Z,18.78
2018-09-12T04:16:21.708Z,18.69
2018-09-12T04:17:21.646Z,18.72
2018-09-12T04:19:14.419Z,18.66
2018-09-12T04:20:14.341Z,18.60
2018-09-12T04:22:07.115Z,18.62
2018-09-12T04:23:07.054Z,18.64
2018-09-12T04:24:59.870Z,18.64
2018-09-12T04:25:59.769Z,18.59
2018-09-12T04:27:52.560Z,18.60
2018-09-12T04:28:52.486Z,18.68
2018-09-12T04:30:45.267Z,18.72
2018-09-12T04:31:45.199Z,18.78
2018-09-12T04:33:37.994Z,18.78
2018-09-12T04:34:37.922Z,18.84
2018-09-12T04:36:30.691Z,18.93
2018-09-12T04:37:30.630Z,18.90
2018-09-12T04:39:23.416Z,18.96
2018-09-12T04:40:23.339Z,18.93
2018-09-12T04:42:16.160Z,19.01
2018-09-12T04:43:16.056Z,19.06
2018-09-12T04:45:08.838Z,19.05
2018-09-12T04:46:08.762Z,19.20
2018-09-12T04:48:01.552Z,19.17
2018-09-12T04:49:01.484Z,19.13
2018-09-12T04:50:54.239Z,19.09
2018-09-12T04:51:54.239Z,19.23
2018-09-12T04:53:46.966Z,19.17
2018-09-12T04:54:46.937Z,19.15
2018-09-12T04:56:39.674Z,19.12
2018-09-12T04:57:39.624Z,19.13
2018-09-12T04:59:32.434Z,19.02
2018-09-12T05:00:32.331Z,19.10
2018-09-12T05:02:25.108Z,19.09
2018-09-12T05:03:25.042Z,19.05
2018-09-12T05:05:17.826Z,19.09
2018-09-12T05:06:17.735Z,19.05
2018-09-12T05:08:10.510Z,19.06
2018-09-12T05:09:10.438Z,19.07
2018-09-12T05:11:03.208Z,19.06
2018-09-12T05:12:03.129Z,19.20
2018-09-12T05:13:55.916Z,19.25
2018-09-12T05:14:55.847Z,19.35
2018-09-12T05:16:48.726Z,19.24
2018-09-12T05:17:48.546Z,19.27
2018-09-12T05:19:41.332Z,19.39
2018-09-12T05:20:41.258Z,19.39
2018-09-12T05:22:34.053Z,19.39
2018-09-12T05:23:33.988Z,19.35
2018-09-12T05:25:26.749Z,19.38
2018-09-12T05:26:26.676Z,19.40
2018-09-12T05:28:19.477Z,19.38
2018-09-12T05:29:19.387Z,19.46
2018-09-12T05:31:12.167Z,19.53
2018-09-12T05:32:12.106Z,19.58
2018-09-12T05:34:04.886Z,19.68
2018-09-12T05:35:04.812Z,19.71
2018-09-12T05:36:57.574Z,19.82
2018-09-12T05:37:57.506Z,19.97
2018-09-12T05:39:50.287Z,20.31
2018-09-12T05:40:50.216Z,20.42
2018-09-12T05:42:43.012Z,20.69
2018-09-12T05:43:42.955Z,20.50
2018-09-12T05:45:35.770Z,20.37
2018-09-12T05:46:35.706Z,20.42
2018-09-12T05:48:28.554Z,20.44
2018-09-12T05:49:28.463Z,20.30
2018-09-12T05:51:21.251Z,20.22
2018-09-12T05:52:21.173Z,20.23
2018-09-12T05:54:14.030Z,20.50
2018-09-12T05:55:13.958Z,20.78
2018-09-12T05:57:06.720Z,20.73
2018-09-12T05:58:06.661Z,20.79
2018-09-12T05:59:59.431Z,20.53
2018-09-12T06:00:59.356Z,20.46
2018-09-12T06:02:52.161Z,20.35
2018-09-12T06:03:52.112Z,20.35
2018-09-12T06:05:44.910Z,20.25
2018-09-12T06:06:44.902Z,20.33
2018-09-12T06:08:37.600Z,20.20
2018-09-12T06:09:37.536Z,20.26
2018-09-12T06:11:30.309Z,20.23
2018-09-12T06:12:30.239Z,20.30
2018-09-12T06:14:23.015Z,20.34
2018-09-12T06:15:22.949Z,20.37
2018-09-12T06:17:15.731Z,20.56
2018-09-12T06:18:15.669Z,20.50
2018-09-12T06:20:08.462Z,20.66
2018-09-12T06:21:08.395Z,20.82
2018-09-12T06:23:01.213Z,21.16
2018-09-12T06:24:01.156Z,21.38
2018-09-12T06:25:53.969Z,21.75
2018-09-12T06:26:53.900Z,22.14
2018-09-12T06:28:46.731Z,22.69
2018-09-12T06:29:46.664Z,23.14
2018-09-12T06:31:39.458Z,24.23
2018-09-12T06:32:39.390Z,25.20
2018-09-12T06:34:32.181Z,26.68
2018-09-12T06:35:32.118Z,27.23
2018-09-12T06:37:24.884Z,28.48
2018-09-12T06:38:24.898Z,28.69
2018-09-12T06:40:17.605Z,28.97
2018-09-12T06:41:17.541Z,29.14
2018-09-12T06:43:10.399Z,29.48
2018-09-12T06:44:10.289Z,29.74
2018-09-12T06:46:03.085Z,29.86
2018-09-12T06:47:03.018Z,29.74
2018-09-12T06:48:55.787Z,30.44
2018-09-12T06:49:55.722Z,30.88
2018-09-12T06:51:48.508Z,30.97
2018-09-12T06:52:48.440Z,31.19
2018-09-12T06:54:41.268Z,31.60
2018-09-12T06:55:41.165Z,32.10
2018-09-12T06:57:33.940Z,31.76
2018-09-12T06:58:33.884Z,31.67
2018-09-12T07:00:26.700Z,31.67
2018-09-12T07:01:26.630Z,31.25
2018-09-12T07:03:19.431Z,31.38
2018-09-12T07:04:19.378Z,31.20
2018-09-12T07:06:12.189Z,31.05
2018-09-12T07:07:12.125Z,30.96
2018-09-12T07:09:05.004Z,31.05
2018-09-12T07:10:04.947Z,31.27
2018-09-12T07:11:57.738Z,31.20
2018-09-12T07:12:57.683Z,31.64
2018-09-12T07:14:50.465Z,32.02
2018-09-12T07:15:50.419Z,32.16
2018-09-12T07:17:43.260Z,31.87
2018-09-12T07:18:43.131Z,32.21
2018-09-12T07:20:35.940Z,32.44
2018-09-12T07:21:35.879Z,32.47
2018-09-12T07:23:28.690Z,32.81
2018-09-12T07:24:28.677Z,32.95
2018-09-12T07:26:21.473Z,33.03
2018-09-12T07:27:21.385Z,33.41
2018-09-12T07:29:14.186Z,33.74
2018-09-12T07:30:14.135Z,33.93
2018-09-12T07:32:06.947Z,33.66
2018-09-12T07:33:06.886Z,33.43
2018-09-12T07:34:59.730Z,34.03
2018-09-12T07:35:59.639Z,34.01
2018-09-12T07:37:52.440Z,33.38
2018-09-12T07:38:52.383Z,32.65
2018-09-12T07:40:45.198Z,32.47
2018-09-12T07:41:45.201Z,32.17
2018-09-12T07:43:37.947Z,32.02
2018-09-12T07:44:37.884Z,31.90
2018-09-12T07:46:30.698Z,32.17
2018-09-12T07:47:30.638Z,32.21
2018-09-12T07:49:23.442Z,32.25
2018-09-12T07:50:23.389Z,32.44
2018-09-12T07:52:16.195Z,32.80
2018-09-12T07:53:16.135Z,32.62
2018-09-12T07:55:08.984Z,33.09
2018-09-12T07:56:08.961Z,32.78
2018-09-12T07:58:01.693Z,32.51
2018-09-12T07:59:01.639Z,31.97
2018-09-12T08:00:54.446Z,30.10
2018-09-12T08:01:54.384Z,29.49
2018-09-12T08:03:47.179Z,28.85
2018-09-12T08:04:47.134Z,28.61
2018-09-12T08:06:39.956Z,28.45
2018-09-12T08:07:39.887Z,28.38
2018-09-12T08:09:32.677Z,28.60
2018-09-12T08:10:32.628Z,28.51
2018-09-12T08:12:25.449Z,28.36
2018-09-12T08:13:25.379Z,28.48
2018-09-12T08:15:18.174Z,28.14
2018-09-12T08:16:18.114Z,27.98
2018-09-12T08:18:10.928Z,27.76
2018-09-12T08:19:10.950Z,27.69
2018-09-12T08:21:03.667Z,27.34
2018-09-12T08:22:03.611Z,27.16
2018-09-12T08:23:56.420Z,27.01
2018-09-12T08:24:56.356Z,27.02
2018-09-12T08:26:49.159Z,27.08
2018-09-12T08:27:49.074Z,27.12
2018-09-12T08:29:41.851Z,27.03
2018-09-12T08:30:41.791Z,27.05
2018-09-12T08:32:34.579Z,26.84
2018-09-12T08:33:34.537Z,26.71
2018-09-12T08:35:27.319Z,26.84
2018-09-12T08:36:27.296Z,26.98
2018-09-12T08:38:20.034Z,27.40
2018-09-12T08:39:19.978Z,27.55
2018-09-12T08:41:12.781Z,27.77
2018-09-12T08:42:12.839Z,27.86
2018-09-12T08:44:05.557Z,28.14
2018-09-12T08:45:05.473Z,28.13
2018-09-12T08:46:58.222Z,28.23
2018-09-12T08:47:58.154Z,28.23
2018-09-12T08:49:50.929Z,28.30
2018-09-12T08:50:50.884Z,28.35
2018-09-12T08:52:43.700Z,28.64
2018-09-12T08:53:43.632Z,29.05
2018-09-12T08:55:36.450Z,29.91
2018-09-12T08:56:36.414Z,30.18
2018-09-12T08:58:29.154Z,30.16
2018-09-12T08:59:29.086Z,30.04
2018-09-12T09:01:21.943Z,29.67
2018-09-12T09:02:21.806Z,29.64
2018-09-12T09:04:14.580Z,29.73
2018-09-12T09:05:14.524Z,29.71
2018-09-12T09:07:07.353Z,30.19
2018-09-12T09:08:07.285Z,30.38
2018-09-12T09:10:00.073Z,30.03
2018-09-12T09:11:00.007Z,30.04
2018-09-12T09:12:52.801Z,30.11
2018-09-12T09:13:52.730Z,30.18
2018-09-12T09:15:45.522Z,29.52
2018-09-12T09:16:45.458Z,29.20
2018-09-12T09:18:38.237Z,28.33
2018-09-12T09:19:38.183Z,28.18
2018-09-12T09:21:31.000Z,28.03
2018-09-12T09:22:30.928Z,27.98
2018-09-12T09:24:23.736Z,28.03
2018-09-12T09:25:23.679Z,28.01
2018-09-12T09:27:16.481Z,28.13
2018-09-12T09:28:16.423Z,27.74
2018-09-12T09:30:09.186Z,27.66
2018-09-12T09:31:09.130Z,27.76
2018-09-12T09:33:01.922Z,27.69
2018-09-12T09:34:01.857Z,27.71
2018-09-12T09:35:54.670Z,27.74
2018-09-12T09:36:54.572Z,27.78
2018-09-12T09:38:47.354Z,27.69
2018-09-12T09:39:47.303Z,27.53
2018-09-12T09:41:40.090Z,27.35
2018-09-12T09:42:40.079Z,27.31
2018-09-12T09:44:32.791Z,27.15
2018-09-12T09:45:32.733Z,27.11
2018-09-12T09:47:25.554Z,26.97
2018-09-12T09:48:25.563Z,27.12
2018-09-12T09:50:18.289Z,27.12
2018-09-12T09:51:18.231Z,27.08
2018-09-12T09:53:11.053Z,26.87
2018-09-12T09:54:10.985Z,26.81
2018-09-12T09:56:03.762Z,26.87
2018-09-12T09:57:03.707Z,26.86
2018-09-12T09:58:56.484Z,26.78
2018-09-12T09:59:56.432Z,26.76
2018-09-12T10:01:49.202Z,26.73
2018-09-12T10:02:49.132Z,26.76
2018-09-12T10:04:41.949Z,26.93
2018-09-12T10:05:41.883Z,27.02
2018-09-12T10:07:34.702Z,27.16
2018-09-12T10:08:34.673Z,27.16
2018-09-12T10:10:27.432Z,27.40
2018-09-12T10:11:27.429Z,27.49
2018-09-12T10:13:20.152Z,27.62
2018-09-12T10:14:20.079Z,27.72
2018-09-12T10:16:12.855Z,27.88
2018-09-12T10:17:12.811Z,28.14
2018-09-12T10:19:05.585Z,28.20
2018-09-12T10:20:05.510Z,28.43
2018-09-12T10:21:58.331Z,28.79
2018-09-12T10:22:58.289Z,29.25
2018-09-12T10:24:51.030Z,29.89
2018-09-12T10:25:50.979Z,30.16
2018-09-12T10:27:43.764Z,30.68
2018-09-12T10:28:43.699Z,30.67
2018-09-12T10:30:36.498Z,30.66
2018-09-12T10:31:36.469Z,30.68
2018-09-12T10:33:29.277Z,30.49
2018-09-12T10:34:29.208Z,30.68
2018-09-12T10:36:21.995Z,30.76
2018-09-12T10:37:21.943Z,30.57
2018-09-12T10:39:14.752Z,30.59
2018-09-12T10:40:14.688Z,30.72
2018-09-12T10:42:07.502Z,30.68
2018-09-12T10:43:07.437Z,30.72
2018-09-12T10:45:00.247Z,30.56
2018-09-12T10:46:00.191Z,30.22
2018-09-12T10:47:52.998Z,29.97
2018-09-12T10:48:52.929Z,29.94
2018-09-12T10:50:45.740Z,29.76
2018-09-12T10:51:45.679Z,29.47
2018-09-12T10:53:38.509Z,29.32
2018-09-12T10:54:38.440Z,29.21
2018-09-12T10:56:31.238Z,29.35
2018-09-12T10:57:31.184Z,29.29
2018-09-12T10:59:24.002Z,29.33
2018-09-12T11:00:23.939Z,29.29
2018-09-12T11:02:16.758Z,29.32
2018-09-12T11:03:16.691Z,29.33
2018-09-12T11:05:09.508Z,29.20
2018-09-12T11:06:09.439Z,29.23
2018-09-12T11:08:02.259Z,28.95
2018-09-12T11:09:02.186Z,29.18
2018-09-12T11:10:54.961Z,29.37
2018-09-12T11:11:54.896Z,29.29
2018-09-12T11:13:47.713Z,28.94
2018-09-12T11:14:47.634Z,28.72
2018-09-12T11:16:40.432Z,28.82
2018-09-12T11:17:40.372Z,28.65
2018-09-12T11:19:33.151Z,28.62
2018-09-12T11:20:33.083Z,28.60
2018-09-12T11:22:25.888Z,28.70
2018-09-12T11:23:25.816Z,28.62
2018-09-12T11:25:18.632Z,28.61
2018-09-12T11:26:18.566Z,28.79
2018-09-12T11:28:11.390Z,29.23
2018-09-12T11:29:11.316Z,29.48
2018-09-12T11:31:04.088Z,29.76
2018-09-12T11:32:04.035Z,29.66
2018-09-12T11:33:56.834Z,29.60
2018-09-12T11:34:56.769Z,29.35
2018-09-12T11:36:49.542Z,29.02
2018-09-12T11:37:49.478Z,28.74
2018-09-12T11:39:42.276Z,28.46
2018-09-12T11:40:42.209Z,28.45
2018-09-12T11:42:35.047Z,28.32
2018-09-12T11:43:34.980Z,28.33
2018-09-12T11:45:27.763Z,28.43
2018-09-12T11:46:27.706Z,28.28
2018-09-12T11:48:20.496Z,28.55
2018-09-12T11:49:20.443Z,28.70
2018-09-12T11:51:13.227Z,29.07
2018-09-12T11:52:13.171Z,29.29
2018-09-12T11:54:05.957Z,29.48
2018-09-12T11:55:05.882Z,29.51
2018-09-12T11:56:58.664Z,29.52
2018-09-12T11:57:58.599Z,29.76
2018-09-12T11:59:51.387Z,29.74
2018-09-12T12:00:51.327Z,29.76
2018-09-12T12:02:44.112Z,29.70
2018-09-12T12:03:44.029Z,29.63
2018-09-12T12:05:36.803Z,29.58
2018-09-12T12:06:36.771Z,29.66
2018-09-12T12:08:29.538Z,29.52
2018-09-12T12:09:29.473Z,29.41
2018-09-12T12:11:22.243Z,29.35
2018-09-12T12:12:22.182Z,29.18
2018-09-12T12:14:14.992Z,28.91
2018-09-12T12:15:14.959Z,28.73
2018-09-12T12:17:07.697Z,28.77
2018-09-12T12:18:07.696Z,28.74
2018-09-12T12:20:00.439Z,28.50
2018-09-12T12:21:00.370Z,28.40
2018-09-12T12:22:53.200Z,28.40
2018-09-12T12:23:53.120Z,28.40
2018-09-12T12:25:45.894Z,28.51
2018-09-12T12:26:45.834Z,28.60
2018-09-12T12:28:38.632Z,28.60
2018-09-12T12:29:38.567Z,28.69
2018-09-12T12:31:31.369Z,28.64
2018-09-12T12:32:31.331Z,28.62
2018-09-12T12:34:24.136Z,28.82
2018-09-12T12:35:24.085Z,29.02
2018-09-12T12:37:16.850Z,29.00
2018-09-12T12:38:16.791Z,28.91
2018-09-12T12:40:09.589Z,28.89
2018-09-12T12:41:09.521Z,28.98
2018-09-12T12:43:02.330Z,29.07
2018-09-12T12:44:02.234Z,29.00
2018-09-12T12:45:55.013Z,28.94
2018-09-12T12:46:54.940Z,28.88
2018-09-12T12:48:47.739Z,28.70
2018-09-12T12:49:47.672Z,28.76
2018-09-12T12:51:40.477Z,28.82
2018-09-12T12:52:40.419Z,28.76
2018-09-12T12:54:33.236Z,28.70
2018-09-12T12:55:33.171Z,28.58
2018-09-12T12:57:25.986Z,28.62
2018-09-12T12:58:25.924Z,28.70
2018-09-12T13:00:18.731Z,28.70
2018-09-12T13:01:18.671Z,28.72
2018-09-12T13:03:11.478Z,28.72
2018-09-12T13:04:11.417Z,28.74
2018-09-12T13:06:04.197Z,28.77
2018-09-12T13:07:04.141Z,28.70
2018-09-12T13:08:56.940Z,28.85
2018-09-12T13:09:56.853Z,28.82
2018-09-12T13:11:49.643Z,28.82
2018-09-12T13:12:49.588Z,28.74
2018-09-12T13:14:42.451Z,28.62
2018-09-12T13:15:42.297Z,28.40
2018-09-12T13:17:35.089Z,28.21
2018-09-12T13:18:35.019Z,28.30
2018-09-12T13:20:27.800Z,28.43
2018-09-12T13:21:27.807Z,28.51
2018-09-12T13:23:20.517Z,28.51
2018-09-12T13:24:20.458Z,28.45
2018-09-12T13:26:13.279Z,28.61
2018-09-12T13:27:13.229Z,28.58
2018-09-12T13:29:05.981Z,28.64
2018-09-12T13:30:05.922Z,28.65
2018-09-12T13:31:58.701Z,28.73
2018-09-12T13:32:58.648Z,28.80
2018-09-12T13:34:51.446Z,29.00
2018-09-12T13:35:51.371Z,28.98
2018-09-12T13:37:44.146Z,29.07
2018-09-12T13:38:44.091Z,29.17
2018-09-12T13:40:36.893Z,29.15
2018-09-12T13:41:36.809Z,29.26
2018-09-12T13:43:29.603Z,29.11
2018-09-12T13:44:29.604Z,29.17
2018-09-12T13:46:22.335Z,29.30
2018-09-12T13:47:22.268Z,29.25
2018-09-12T13:49:15.052Z,29.08
2018-09-12T13:50:14.992Z,29.08
2018-09-12T13:52:07.764Z,29.02
2018-09-12T13:53:07.699Z,28.89
2018-09-12T13:55:00.485Z,28.74
2018-09-12T13:56:00.416Z,28.60
2018-09-12T13:57:53.194Z,28.46
2018-09-12T13:58:53.137Z,28.43
2018-09-12T14:00:45.915Z,28.30
2018-09-12T14:01:45.850Z,28.23
2018-09-12T14:03:38.636Z,28.15
2018-09-12T14:04:38.566Z,28.03
2018-09-12T14:06:31.353Z,28.09
2018-09-12T14:07:31.290Z,28.18
2018-09-12T14:09:24.066Z,28.14
2018-09-12T14:10:23.997Z,28.06
2018-09-12T14:12:16.778Z,27.86
2018-09-12T14:13:16.720Z,27.86
2018-09-12T14:15:09.533Z,27.83
2018-09-12T14:16:09.454Z,27.84
2018-09-12T14:18:02.250Z,27.91
2018-09-12T14:19:02.183Z,27.87
2018-09-12T14:20:54.961Z,27.88
2018-09-12T14:21:54.887Z,27.74
2018-09-12T14:23:47.675Z,27.68
2018-09-12T14:24:47.617Z,27.76
2018-09-12T14:26:40.392Z,27.71
2018-09-12T14:27:40.320Z,27.69
2018-09-12T14:29:33.148Z,27.65
2018-09-12T14:30:33.068Z,27.62
2018-09-12T14:32:25.840Z,27.63
2018-09-12T14:33:25.791Z,27.62
2018-09-12T14:35:18.578Z,27.65
2018-09-12T14:36:18.517Z,27.58
2018-09-12T14:38:11.309Z,27.46
2018-09-12T14:39:11.336Z,27.52
2018-09-12T14:41:04.907Z,27.49
2018-09-12T14:42:03.990Z,27.49
2018-09-12T14:43:56.724Z,27.43
2018-09-12T14:44:56.711Z,27.40
2018-09-12T14:46:49.453Z,27.35
2018-09-12T14:47:49.382Z,27.42
2018-09-12T14:49:42.175Z,27.34
2018-09-12T14:50:42.152Z,27.35
2018-09-12T14:52:34.887Z,27.34
2018-09-12T14:53:34.837Z,27.23
2018-09-12T14:55:27.705Z,27.11
2018-09-12T14:56:27.551Z,27.11
2018-09-12T14:58:20.367Z,27.16
2018-09-12T14:59:20.263Z,27.03
2018-09-12T15:01:13.061Z,27.27
2018-09-12T15:02:12.991Z,27.12
2018-09-12T15:04:05.761Z,27.18
2018-09-12T15:05:05.704Z,27.11
2018-09-12T15:06:58.490Z,27.06
2018-09-12T15:07:58.439Z,26.94
2018-09-12T15:09:51.224Z,26.91
2018-09-12T15:10:51.148Z,26.76
2018-09-12T15:12:43.971Z,26.65
2018-09-12T15:13:43.884Z,26.60
2018-09-12T15:15:36.659Z,26.41
2018-09-12T15:16:36.590Z,26.32
2018-09-12T15:18:29.357Z,26.21
2018-09-12T15:19:29.299Z,26.11
2018-09-12T15:21:22.099Z,25.98
2018-09-12T15:22:22.036Z,26.04
2018-09-12T15:24:14.804Z,25.94
2018-09-12T15:25:14.742Z,25.93
2018-09-12T15:27:07.586Z,25.89
2018-09-12T15:28:07.473Z,25.76
2018-09-12T15:30:00.283Z,25.60
2018-09-12T15:31:00.186Z,25.57
2018-09-12T15:32:52.985Z,25.38
2018-09-12T15:33:52.915Z,25.39
2018-09-12T15:35:45.736Z,25.38
2018-09-12T15:36:45.663Z,25.35
2018-09-12T15:38:38.434Z,25.30
2018-09-12T15:39:38.361Z,25.26
2018-09-12T15:41:31.216Z,25.26
2018-09-12T15:42:31.081Z,25.26
2018-09-12T15:44:23.854Z,25.14
2018-09-12T15:45:23.793Z,25.12
2018-09-12T15:47:16.639Z,25.04
2018-09-12T15:48:16.519Z,24.98
2018-09-12T15:50:09.294Z,24.84
2018-09-12T15:51:09.250Z,24.67
2018-09-12T15:53:02.003Z,24.52
2018-09-12T15:54:01.936Z,24.45
2018-09-12T15:55:54.744Z,24.27
2018-09-12T15:56:54.665Z,24.26
2018-09-12T15:58:47.488Z,24.19
2018-09-12T15:59:47.429Z,24.14
2018-09-12T16:01:40.240Z,23.92
2018-09-12T16:02:40.170Z,23.86
2018-09-12T16:04:32.945Z,23.71
2018-09-12T16:05:32.888Z,23.71
2018-09-12T16:07:25.710Z,23.69
2018-09-12T16:08:25.631Z,23.63
2018-09-12T16:10:18.426Z,23.57
2018-09-12T16:11:18.346Z,23.59
2018-09-12T16:13:11.138Z,23.53
2018-09-12T16:14:11.073Z,23.49
2018-09-12T16:16:03.890Z,23.45
2018-09-12T16:17:03.841Z,23.38
2018-09-12T16:18:56.587Z,23.38
2018-09-12T16:19:56.523Z,23.38
2018-09-12T16:21:49.310Z,23.39
2018-09-12T16:22:49.236Z,23.25
2018-09-12T16:24:42.027Z,23.23
2018-09-12T16:25:41.969Z,23.00
2018-09-12T16:27:34.791Z,23.07
2018-09-12T16:28:34.956Z,22.99
2018-09-12T16:30:27.496Z,22.94
2018-09-12T16:31:27.417Z,22.97
2018-09-12T16:33:20.211Z,22.86
2018-09-12T16:34:20.129Z,22.91
2018-09-12T16:36:12.931Z,22.63
2018-09-12T16:37:12.860Z,22.48
2018-09-12T16:39:05.680Z,22.38
2018-09-12T16:40:05.614Z,22.31
2018-09-12T16:41:58.432Z,22.21
2018-09-12T16:42:58.363Z,22.17
2018-09-12T16:44:51.126Z,22.01
2018-09-12T16:45:51.070Z,22.02
2018-09-12T16:47:43.858Z,21.91
2018-09-12T16:48:43.781Z,21.93
2018-09-12T16:50:36.625Z,21.90
2018-09-12T16:51:36.628Z,21.85
2018-09-12T16:53:29.297Z,21.77
2018-09-12T16:54:29.213Z,21.67
2018-09-12T16:56:22.014Z,21.63
2018-09-12T16:57:21.927Z,21.61
2018-09-12T16:59:14.723Z,21.46
2018-09-12T17:00:14.662Z,21.46
2018-09-12T17:02:07.502Z,21.37
2018-09-12T17:03:07.431Z,21.28
2018-09-12T17:05:00.215Z,21.27
2018-09-12T17:06:00.147Z,21.22
2018-09-12T17:07:52.937Z,21.13
2018-09-12T17:08:52.858Z,21.11
2018-09-12T17:10:45.640Z,21.08
2018-09-12T17:11:45.571Z,21.01
2018-09-12T17:13:38.362Z,20.91
2018-09-12T17:14:38.292Z,20.93
2018-09-12T17:16:31.111Z,20.93
2018-09-12T17:17:31.029Z,20.91
2018-09-12T17:19:23.802Z,20.85
2018-09-12T17:20:23.741Z,20.78
2018-09-12T17:22:16.542Z,20.81
2018-09-12T17:23:16.474Z,20.73
2018-09-12T17:25:09.264Z,20.72
2018-09-12T17:26:09.197Z,20.76
2018-09-12T17:28:01.965Z,20.76
2018-09-12T17:29:01.891Z,20.72
2018-09-12T17:30:54.683Z,20.71
2018-09-12T17:31:54.628Z,20.66
2018-09-12T17:33:47.388Z,20.75
2018-09-12T17:34:47.316Z,20.78
2018-09-12T17:36:52.904Z,20.64
2018-09-12T17:37:52.835Z,20.71
2018-09-12T17:39:45.621Z,20.61
2018-09-12T17:40:45.559Z,20.56
2018-09-12T17:42:38.379Z,20.60
2018-09-12T17:43:38.300Z,20.51
2018-09-12T17:45:31.111Z,20.50
2018-09-12T17:46:31.052Z,20.40
2018-09-12T17:48:23.886Z,20.38
2018-09-12T17:49:23.803Z,20.41
2018-09-12T17:51:16.577Z,20.31
2018-09-12T17:52:16.569Z,20.23
2018-09-12T17:54:09.304Z,20.25
2018-09-12T17:55:09.217Z,20.19
2018-09-12T17:57:02.018Z,20.12
2018-09-12T17:58:01.946Z,20.13
2018-09-12T17:59:54.712Z,20.19
2018-09-12T18:00:54.645Z,20.15
2018-09-12T18:02:47.487Z,20.07
2018-09-12T18:03:47.418Z,20.13
2018-09-12T18:05:40.254Z,19.94
2018-09-12T18:06:40.120Z,19.89
2018-09-12T18:08:32.912Z,19.97
2018-09-12T18:09:32.839Z,19.90
2018-09-12T18:11:25.717Z,19.82
2018-09-12T18:12:25.594Z,19.83
2018-09-12T18:14:18.382Z,19.80
2018-09-12T18:15:18.297Z,19.90
2018-09-12T18:17:11.092Z,19.86
2018-09-12T18:18:11.013Z,19.85
2018-09-12T18:20:03.800Z,19.83
2018-09-12T18:21:03.735Z,19.79
2018-09-12T18:22:56.508Z,19.70
2018-09-12T18:23:56.469Z,19.78
2018-09-12T18:25:49.194Z,19.71
2018-09-12T18:26:49.136Z,19.71
2018-09-12T18:28:41.912Z,19.64
2018-09-12T18:29:41.845Z,19.60
2018-09-12T18:31:34.615Z,19.58